Latest Weather Observations for Cape Flattery

IDQ60801

Issued at 6:05 pm EST Saturday 25 October 2014 (issued every 30 minutes, with the page automatically refreshed every 10 minutes)

About weather observations | Map of weather stations | Latest weather observations for QLD | Other Formats
Station Details ID: 031213 Name: CAPE FLATTERY Lat: -14.97 Lon: 145.31 Height: 18.5 m
Data from the previous 72 hours. | See also: Recent months at Cape Flattery
Date/Time
EST
Temp
°C
App
Temp
°C
Dew
Point
Rel
Hum
%
Delta-T
°C
Wind Press
QNH
hPa
Press
MSL
hPa
Rain
since 9 am
mm
Dir
 
Spd
km/h
Gust
km/h
Spd
kts
Gust
kts
25/06:00pm 25.0 21.5 18.0 65 4.4 SSE 33 43 18 23 1015.6 1015.5 0.0
25/05:30pm 25.3 21.9 18.2 64 4.5 SSE 33 46 18 25 1015.3 1015.2 0.0
25/05:00pm 26.3 22.4 17.9 60 5.3 SSE 35 43 19 23 1015.1 1015.0 0.0
25/04:30pm 26.8 23.4 17.8 57 5.7 SSE 32 44 17 24 1014.7 1014.6 0.0
25/04:00pm 26.6 22.7 17.9 59 5.5 SSE 35 44 19 24 1014.6 1014.5 0.0
25/03:30pm 27.5 23.6 17.9 55 6.1 SSE 35 46 19 25 1014.7 1014.6 0.0
25/03:00pm 28.0 24.2 17.2 52 6.8 SE 33 43 18 23 1014.9 1014.8 0.0
25/02:30pm 28.3 24.6 17.5 52 6.8 SE 33 44 18 24 1015.1 1015.0 0.0
25/02:00pm 28.3 24.3 17.5 52 6.8 SE 35 44 19 24 1015.3 1015.2 0.0
25/01:30pm 28.8 25.0 18.0 52 6.9 SE 35 48 19 26 1015.5 1015.4 0.0
25/01:00pm 27.6 23.9 17.5 54 6.4 SE 33 46 18 25 1015.8 1015.7 0.0
25/12:30pm 28.6 24.5 16.5 48 7.5 SE 33 44 18 24 1016.2 1016.1 0.0
25/12:00pm 28.0 23.6 16.6 50 7.1 SE 35 48 19 26 1016.6 1016.5 0.0
25/11:30am 26.6 23.0 17.1 56 5.9 ESE 32 46 17 25 1016.9 1016.8 0.0
25/11:00am 27.0 22.7 16.9 54 6.3 SE 35 48 19 26 1017.4 1017.3 0.0
25/10:30am 27.0 22.2 16.6 53 6.4 SE 37 46 20 25 1017.7 1017.6 0.0
25/10:00am 28.2 23.6 15.1 44 8.0 ESE 33 48 18 26 1017.8 1017.7 0.0
25/09:30am 27.9 23.4 15.5 46 7.6 ESE 33 46 18 25 1017.9 1017.8 0.0
25/09:11am 27.2 22.4 15.6 49 7.1 ESE 35 54 19 29 1017.9 1017.8 0.0
25/09:00am 26.7 21.6 15.7 51 6.7 ESE 37 50 20 27 1017.9 1017.8 0.6
25/08:30am 25.4 22.2 18.6 66 4.3 ESE 33 46 18 25 1017.6 1017.5 0.6
25/08:00am 23.6 20.2 19.1 76 2.9 SE 35 48 19 26 1017.5 1017.4 0.4
25/07:36am 24.9 23.2 19.9 74 3.2 ESE 28 48 15 26 1017.0 1016.9 0.4
25/07:30am 23.7 23.0 20.2 81 2.3 ESE 24 48 13 26 1017.0 1016.9 0.4
25/07:00am 21.8 20.7 19.5 87 1.5 ESE 24 41 13 22 1016.8 1016.7 0.4
25/06:40am 22.0 20.0 19.2 84 1.8 E 28 46 15 25 1016.6 1016.5 0.2
25/06:30am 23.7 21.3 19.0 75 3.0 ESE 30 43 16 23 1016.4 1016.3 0.2
25/06:00am 23.2 21.8 19.6 80 2.3 SE 26 35 14 19 1016.0 1015.9 0.2
25/05:30am 23.0 20.7 19.4 80 2.3 SE 30 39 16 21 1015.7 1015.6 0.2
25/05:00am 21.9 20.3 19.3 85 1.6 SE 26 39 14 21 1015.6 1015.5 0.2
25/04:36am 23.2 19.5 18.3 74 3.1 SE 35 54 19 29 1015.6 1015.5 0.0
25/04:30am 24.2 20.8 17.7 67 4.1 SE 32 43 17 23 1015.4 1015.3 0.0
25/04:00am 24.1 21.1 17.8 68 3.9 SE 30 44 16 24 1015.2 1015.1 0.0
25/03:49am 24.1 21.2 17.1 65 4.3 SE 28 46 15 25 1015.3 1015.2 0.0
25/03:30am 24.2 20.5 17.4 65 4.2 SE 33 44 18 24 1015.2 1015.1 0.0
25/03:00am 24.0 21.2 17.3 66 4.2 SE 28 39 15 21 1015.2 1015.1 0.0
25/02:30am 23.8 20.7 17.5 68 3.9 SE 30 41 16 22 1015.3 1015.2 0.0
25/02:01am 23.8 20.6 17.3 67 4.0 SE 30 48 16 26 1015.6 1015.5 0.0
25/02:00am 23.7 20.1 17.2 67 4.0 SE 32 48 17 26 1015.6 1015.5 0.0
25/01:30am 23.8 20.5 17.1 66 4.1 SE 30 43 16 23 1015.9 1015.8 0.0
25/01:08am 23.8 20.0 16.8 65 4.3 SE 32 50 17 27 1016.1 1016.0 0.0
25/01:00am 23.9 20.0 16.9 65 4.3 SE 33 48 18 26 1016.2 1016.1 0.0
25/12:30am 23.9 19.6 16.9 65 4.3 SE 35 46 19 25 1016.4 1016.3 0.0
25/12:00am 23.9 19.9 16.7 64 4.4 SE 33 43 18 23 1016.8 1016.7 0.0
 
Date/Time
EST
Temp
°C
App
Temp
°C
Dew
Point
Rel
Hum
%
Delta-T
°C
Wind Press
QNH
hPa
Press
MSL
hPa
Rain
since 9 am
mm
Dir
 
Spd
km/h
Gust
km/h
Spd
kts
Gust
kts
24/11:30pm 24.1 19.7 16.6 63 4.6 SE 35 44 19 24 1017.2 1017.1 0.0
24/11:00pm 24.2 20.3 16.5 62 4.7 SE 32 44 17 24 1017.6 1017.5 0.0
24/10:30pm 24.2 20.5 17.0 64 4.4 SE 32 41 17 22 1017.6 1017.5 0.0
24/10:00pm 24.2 19.9 17.0 64 4.4 SE 35 50 19 27 1017.7 1017.6 0.0
24/09:30pm 24.3 20.1 17.1 64 4.5 SE 35 50 19 27 1017.6 1017.5 0.0
24/09:00pm 24.3 20.8 17.5 66 4.2 SE 32 41 17 22 1017.3 1017.2 0.0
24/08:30pm 24.6 21.1 17.8 66 4.3 SE 33 48 18 26 1016.9 1016.8 0.0
24/08:00pm 24.4 20.7 16.9 63 4.6 SE 32 44 17 24 1016.7 1016.6 0.0
24/07:30pm 24.2 20.6 16.2 61 4.9 SE 30 43 16 23 1016.5 1016.4 0.0
24/07:00pm 24.4 20.2 16.1 60 5.1 SE 33 44 18 24 1016.4 1016.3 0.0
24/06:30pm 24.5 20.2 17.0 63 4.6 SE 35 46 19 25 1016.1 1016.0 0.0
24/06:00pm 24.9 21.2 16.1 58 5.4 SE 30 43 16 23 1015.9 1015.8 0.0
24/05:30pm 25.6 20.4 14.4 50 6.7 SE 35 50 19 27 1015.5 1015.4 0.0
24/05:00pm 26.0 20.3 14.1 47 7.1 SE 37 48 20 26 1015.1 1015.0 0.0
24/04:30pm 26.6 21.0 14.4 47 7.3 SSE 37 48 20 26 1014.8 1014.7 0.0
24/04:00pm 27.1 21.9 15.5 49 7.1 SE 37 46 20 25 1014.7 1014.6 0.0
24/03:30pm 27.9 23.2 16.8 50 6.9 SE 37 46 20 25 1014.8 1014.7 0.0
24/03:00pm 27.8 23.9 17.0 51 6.8 SE 33 44 18 24 1015.0 1014.9 0.0
24/02:30pm 27.5 23.3 17.1 53 6.5 SE 35 44 19 24 1015.1 1015.0 0.0
24/02:00pm 28.1 24.0 18.2 55 6.3 SE 37 46 20 25 1015.4 1015.3 0.0
24/01:30pm 28.8 25.0 18.0 52 6.9 SE 35 46 19 25 1015.6 1015.5 0.0
24/01:00pm 29.0 25.6 17.8 50 7.1 SE 32 43 17 23 1015.9 1015.8 0.0
24/12:30pm 28.9 25.2 17.4 49 7.3 SE 33 43 18 23 1016.5 1016.4 0.0
24/12:00pm 28.0 24.0 16.3 49 7.2 SE 32 44 17 24 1016.9 1016.8 0.0
24/11:30am 28.7 25.4 17.9 52 6.9 SE 32 41 17 22 1017.1 1017.0 0.0
24/11:00am 28.1 24.5 17.6 53 6.6 ESE 33 44 18 24 1017.6 1017.5 0.0
24/10:30am 28.6 25.3 18.4 54 6.5 SE 33 46 18 25 1017.9 1017.8 0.0
24/10:00am 27.6 23.2 17.5 54 6.4 ESE 37 48 20 26 1018.2 1018.1 0.0
24/09:39am 27.9 24.6 18.0 55 6.3 ESE 32 50 17 27 1018.2 1018.1 0.0
24/09:30am 27.9 24.6 18.3 56 6.1 ESE 33 44 18 24 1018.2 1018.1 0.0
24/09:00am 27.2 24.0 18.5 59 5.5 SE 33 43 18 23 1018.1 1018.0 0.0
24/08:30am 26.1 22.3 18.0 61 5.1 SE 35 44 19 24 1018.0 1017.9 0.0
24/08:00am 26.3 23.2 17.6 58 5.5 ESE 30 43 16 23 1017.8 1017.7 0.0
24/07:30am 25.8 23.3 18.0 62 4.9 ESE 28 43 15 23 1017.5 1017.4 0.0
24/07:00am 25.1 22.1 17.8 64 4.6 ESE 30 41 16 22 1017.0 1016.9 0.0
24/06:30am 24.1 21.5 17.8 68 3.9 ESE 28 41 15 22 1016.6 1016.5 0.0
24/06:00am 23.8 21.5 17.5 68 3.9 ESE 26 37 14 20 1016.4 1016.3 0.0
24/05:30am 23.7 20.8 17.0 66 4.1 ESE 28 41 15 22 1016.1 1016.0 0.0
24/05:00am 23.8 21.5 17.5 68 3.9 ESE 26 35 14 19 1015.8 1015.7 0.0
24/04:30am 23.8 21.6 17.8 69 3.7 ESE 26 35 14 19 1015.5 1015.4 0.0
24/04:00am 23.8 21.7 18.0 70 3.6 ESE 26 37 14 20 1015.3 1015.2 0.0
24/03:30am 23.7 21.2 18.1 71 3.5 SE 28 39 15 21 1015.1 1015.0 0.0
24/03:00am 23.6 20.9 17.6 69 3.7 ESE 28 35 15 19 1015.1 1015.0 0.0
24/02:30am 23.7 20.3 17.7 69 3.7 ESE 32 43 17 23 1015.3 1015.2 0.0
24/02:00am 23.4 21.2 17.8 71 3.5 ESE 26 37 14 20 1015.8 1015.7 0.0
24/01:30am 23.2 21.5 18.1 73 3.2 ESE 24 35 13 19 1016.1 1016.0 0.0
24/01:00am 22.5 22.0 19.1 81 2.2 ESE 20 32 11 17 1016.5 1016.4 0.0
24/12:30am 23.9 21.4 18.1 70 3.6 SE 28 37 15 20 1016.7 1016.6 0.0
24/12:00am 23.9 21.8 18.1 70 3.6 SE 26 37 14 20 1017.0 1016.9 0.0
 
Date/Time
EST
Temp
°C
App
Temp
°C
Dew
Point
Rel
Hum
%
Delta-T
°C
Wind Press
QNH
hPa
Press
MSL
hPa
Rain
since 9 am
mm
Dir
 
Spd
km/h
Gust
km/h
Spd
kts
Gust
kts
23/11:30pm 24.1 21.4 17.6 67 4.1 SE 28 37 15 20 1017.4 1017.3 0.0
23/11:00pm 24.0 21.7 17.5 67 4.0 SE 26 35 14 19 1017.5 1017.4 0.0
23/10:30pm 24.2 21.6 17.9 68 3.9 SE 28 39 15 21 1017.7 1017.6 0.0
23/10:00pm 24.3 21.6 17.5 66 4.2 SE 28 41 15 22 1017.6 1017.5 0.0
23/09:30pm 24.2 21.6 17.7 67 4.1 SE 28 41 15 22 1017.4 1017.3 0.0
23/09:00pm 24.1 21.0 18.5 71 3.5 SE 32 43 17 23 1017.2 1017.1 0.0
23/08:31pm 24.2 22.2 19.1 73 3.3 SE 28 46 15 25 1017.0 1016.9 0.0
23/08:30pm 24.2 22.2 19.1 73 3.3 SE 28 44 15 24 1016.9 1016.8 0.0
23/08:00pm 24.4 22.2 18.6 70 3.7 SE 28 39 15 21 1016.6 1016.5 0.0
23/07:30pm 24.3 21.5 18.2 68 3.8 SE 30 43 16 23 1016.5 1016.4 0.0
23/07:00pm 24.5 21.4 18.4 69 3.9 SE 32 41 17 22 1016.2 1016.1 0.0
23/06:30pm 24.6 21.4 18.1 67 4.1 SE 32 44 17 24 1016.0 1015.9 0.0
23/06:00pm 24.8 21.4 17.8 65 4.4 SE 32 43 17 23 1015.7 1015.6 0.0
23/05:30pm 25.3 22.7 18.7 67 4.2 SE 30 39 16 21 1015.3 1015.2 0.0
23/05:00pm 25.7 22.3 18.9 66 4.3 SSE 35 46 19 25 1014.9 1014.8 0.0
23/04:30pm 26.5 22.8 18.4 61 5.2 SE 35 46 19 25 1014.6 1014.5 0.0
23/04:00pm 26.7 22.4 18.6 61 5.2 SSE 39 50 21 27 1014.3 1014.2 0.0
23/03:30pm 27.3 22.5 18.3 58 5.7 SSE 41 52 22 28 1014.2 1014.1 0.0
23/03:00pm 27.7 22.4 17.2 52 6.6 SE 41 54 22 29 1014.3 1014.2 0.0
23/02:30pm 27.9 22.5 17.1 51 6.8 SE 41 50 22 27 1014.3 1014.2 0.0
23/02:00pm 28.3 22.7 17.5 52 6.8 SSE 43 54 23 29 1014.4 1014.3 0.0
23/01:30pm 28.3 22.7 16.6 49 7.3 SE 41 54 22 29 1014.8 1014.7 0.0
23/01:00pm 29.0 24.4 18.1 51 7.0 SE 39 50 21 27 1015.2 1015.1 0.0
23/12:30pm 28.4 23.3 16.7 49 7.3 SE 39 50 21 27 1015.6 1015.5 0.0
23/12:00pm 28.3 23.1 16.6 49 7.3 SE 39 50 21 27 1016.2 1016.1 0.0
23/11:30am 28.9 24.3 17.1 49 7.4 SE 37 48 20 26 1016.5 1016.4 0.0
23/11:00am 28.0 23.0 16.0 48 7.4 SE 37 50 20 27 1016.8 1016.7 0.0
23/10:43am 28.1 23.3 15.7 46 7.6 SE 35 54 19 29 1016.9 1016.8 0.0
23/10:30am 27.9 22.7 15.5 46 7.6 SE 37 50 20 27 1016.9 1016.8 0.0
23/10:00am 28.5 24.3 17.1 50 7.2 SE 35 48 19 26 1017.0 1016.9 0.0
23/09:30am 27.6 22.3 16.2 49 7.0 SE 39 52 21 28 1017.0 1016.9 0.0
23/09:00am 27.4 22.8 16.1 50 7.0 SE 35 46 19 25 1017.1 1017.0 0.0
23/08:30am 26.5 20.7 16.1 52 6.4 SE 41 52 22 28 1017.1 1017.0 0.0
23/08:11am 26.3 21.4 16.3 54 6.2 SE 37 56 20 30 1017.0 1016.9 0.0
23/08:00am 25.9 20.1 15.0 51 6.6 SE 39 56 21 30 1017.0 1016.9 0.0
23/07:38am 25.7 20.4 15.4 53 6.2 SE 37 57 20 31 1016.8 1016.7 0.0
23/07:30am 25.5 20.3 15.5 54 6.1 SE 37 54 20 29 1016.7 1016.6 0.0
23/07:21am 25.4 20.4 15.1 53 6.2 SE 35 54 19 29 1016.6 1016.5 0.0
23/07:00am 25.0 20.1 15.3 55 5.8 SE 35 50 19 27 1016.4 1016.3 0.0
23/06:30am 24.3 19.3 15.0 56 5.6 SE 35 48 19 26 1016.2 1016.1 0.0
23/06:00am 23.9 19.5 15.1 58 5.3 SE 32 46 17 25 1016.1 1016.0 0.0
23/05:30am 23.7 19.1 15.2 59 5.1 SE 33 46 18 25 1015.8 1015.7 0.0
23/05:00am 23.7 19.7 16.2 63 4.6 SE 32 44 17 24 1015.6 1015.5 0.0
23/04:30am 23.7 19.9 15.7 61 4.8 SE 30 44 16 24 1015.3 1015.2 0.0
23/04:00am 23.7 19.3 15.7 61 4.8 SE 33 44 18 24 1015.2 1015.1 0.0
23/03:30am 23.7 19.2 15.5 60 4.9 SE 33 46 18 25 1015.0 1014.9 0.0
23/03:00am 23.8 18.7 14.8 57 5.4 SE 35 44 19 24 1015.1 1015.0 0.0
23/02:30am 23.8 17.8 14.5 56 5.5 SE 39 50 21 27 1015.3 1015.2 0.0
23/02:00am 23.8 18.5 15.3 59 5.1 SE 37 50 20 27 1015.6 1015.5 0.0
23/01:30am 23.9 19.3 16.2 62 4.7 SE 35 50 19 27 1015.9 1015.8 0.0
23/01:00am 23.8 19.2 16.1 62 4.7 SE 35 48 19 26 1016.4 1016.3 0.0
23/12:30am 23.8 19.6 15.8 61 4.8 SE 32 43 17 23 1016.8 1016.7 0.0
23/12:00am 24.0 19.7 16.0 61 4.9 SE 33 43 18 23 1017.4 1017.3 0.0
 
Date/Time
EST
Temp
°C
App
Temp
°C
Dew
Point
Rel
Hum
%
Delta-T
°C
Wind Press
QNH
hPa
Press
MSL
hPa
Rain
since 9 am
mm
Dir
 
Spd
km/h
Gust
km/h
Spd
kts
Gust
kts
22/11:30pm 24.2 19.8 15.7 59 5.1 SE 33 48 18 26 1017.7 1017.6 0.0
22/11:00pm 24.2 20.2 16.7 63 4.6 SE 33 46 18 25 1018.0 1017.9 0.0
22/10:42pm 24.1 20.6 16.6 63 4.6 SE 30 48 16 26 1018.1 1018.0 0.0
22/10:30pm 24.3 20.9 16.8 63 4.6 SE 30 43 16 23 1018.1 1018.0 0.0
22/10:00pm 24.3 20.3 16.8 63 4.6 SE 33 46 18 25 1018.1 1018.0 0.0
22/09:30pm 24.3 20.5 16.6 62 4.7 SE 32 48 17 26 1018.0 1017.9 0.0
22/09:00pm 24.3 20.3 16.6 62 4.7 SE 33 48 18 26 1017.7 1017.6 0.0
22/08:32pm 24.4 20.1 16.9 63 4.6 SE 35 54 19 29 1017.5 1017.4 0.0
22/08:30pm 24.4 19.7 16.9 63 4.6 SE 37 54 20 29 1017.5 1017.4 0.0
22/08:23pm 24.5 19.9 16.2 60 5.1 SE 35 54 19 29 1017.5 1017.4 0.0
22/08:00pm 24.3 20.2 17.3 65 4.3 SE 35 46 19 25 1017.1 1017.0 0.0
22/07:30pm 24.4 21.3 18.3 69 3.8 SE 32 46 17 25 1016.8 1016.7 0.0
22/07:00pm 24.5 20.7 18.0 67 4.1 SE 35 48 19 26 1016.4 1016.3 0.0
22/06:30pm 24.5 20.3 17.2 63 4.5 SE 35 54 19 29 1016.0 1015.9 0.0
22/06:29pm 24.6 20.6 17.6 65 4.4 SE 35 54 19 29 1016.0 1015.9 0.0

Other Formats:

Comma delimited format used in spreadsheet applications
http://www.bom.gov.au/fwo/IDQ60801/IDQ60801.94188.axf

JavaScript Object Notation format (JSON) in row-major order
http://www.bom.gov.au/fwo/IDQ60801/IDQ60801.94188.json